Time;durP1;ratioP1;P1;durP2;ratioP2;P2;SDS_P1;SDS_P2;PMS_P1;PMS_P2;Temp;Humidity;BMP_temperature;BMP_pressure;BME280_temperature;BME280_humidity;BME280_pressure;Samples;Min_cycle;Max_cycle;Signal;HPM_P1;HPM_P2
2021/06/16 00:00:24;;;;;;;3.9;3.2;;;;;;;17.04;70.52051;939.6969;;;;
2021/06/16 00:02:51;;;;;;;3.6;2.9;;;;;;;17.12;69.89746;939.6049;;;;
2021/06/16 00:05:16;;;;;;;4.8;2.7;;;;;;;17.19;69.00293;939.6749;;;;
2021/06/16 00:07:42;;;;;;;4.7;2.8;;;;;;;17.15;69.66992;939.6592;;;;
2021/06/16 00:10:10;;;;;;;5.3;3.7;;;;;;;16.87;70.21582;939.6465;;;;
2021/06/16 00:12:35;;;;;;;10.1;4.9;;;;;;;16.65;70.96875;939.6052;;;;
2021/06/16 00:15:03;;;;;;;7.6;5.1;;;;;;;16.66;71.16602;939.63;;;;
2021/06/16 00:17:29;;;;;;;7.8;4;;;;;;;16.7;71.12695;939.6531;;;;
2021/06/16 00:19:54;;;;;;;10;4.4;;;;;;;16.74;70.61328;939.5907;;;;
2021/06/16 00:22:22;;;;;;;5.7;3.8;;;;;;;16.69;70.60449;939.5639;;;;
2021/06/16 00:24:47;;;;;;;5.2;3.3;;;;;;;16.62;70.89355;939.5974;;;;
2021/06/16 00:27:40;;;;;;;6.1;3.3;;;;;;;16.5;71.14063;939.535;;;;
2021/06/16 00:30:05;;;;;;;5.6;3.4;;;;;;;16.39;71.64355;939.532;;;;
2021/06/16 00:32:30;;;;;;;3.7;3.1;;;;;;;16.51;71.45508;939.5172;;;;
2021/06/16 00:34:55;;;;;;;4.4;3;;;;;;;16.47;71.41309;939.4992;;;;
2021/06/16 00:37:20;;;;;;;5.1;3.4;;;;;;;16.51;71.37402;939.5245;;;;
2021/06/16 00:39:46;;;;;;;5.2;3.1;;;;;;;16.59;71.16699;939.5339;;;;
2021/06/16 00:42:11;;;;;;;4.1;2.8;;;;;;;16.7;71.18457;939.4594;;;;
2021/06/16 00:44:41;;;;;;;5.6;3;;;;;;;16.74;70.48438;939.5023;;;;
2021/06/16 00:47:06;;;;;;;5.3;3.2;;;;;;;16.75;70.76367;939.5359;;;;
2021/06/16 00:49:31;;;;;;;4.5;3.3;;;;;;;16.76;70.56934;939.5607;;;;
2021/06/16 00:51:56;;;;;;;5.9;3.2;;;;;;;16.69;70.63867;939.5367;;;;
2021/06/16 00:54:21;;;;;;;4.4;3;;;;;;;16.61;70.69531;939.545;;;;
2021/06/16 00:56:49;;;;;;;4.7;3.1;;;;;;;16.58;70.81641;939.5583;;;;
2021/06/16 01:01:43;;;;;;;3.7;2.8;;;;;;;16.55;70.75488;939.5673;;;;
2021/06/16 01:04:07;;;;;;;4.6;3;;;;;;;16.58;70.54004;939.5662;;;;
2021/06/16 01:06:35;;;;;;;4.5;2.7;;;;;;;16.57;70.65332;939.6066;;;;
2021/06/16 01:09:00;;;;;;;3.9;3.2;;;;;;;16.55;70.73242;939.6228;;;;
2021/06/16 01:11:26;;;;;;;5.9;3.2;;;;;;;16.53;70.82129;939.5894;;;;
2021/06/16 01:13:52;;;;;;;4.3;3.1;;;;;;;16.46;71.06543;939.6062;;;;
2021/06/16 01:16:18;;;;;;;5.6;3.3;;;;;;;16.41;71.28809;939.6;;;;
2021/06/16 01:18:45;;;;;;;4.4;3.1;;;;;;;16.3;71.65234;939.5851;;;;
2021/06/16 01:21:10;;;;;;;3.5;2.9;;;;;;;16.3;71.82617;939.6301;;;;
2021/06/16 01:23:39;;;;;;;3.9;3.1;;;;;;;16.27;72.0625;939.6433;;;;
2021/06/16 01:26:04;;;;;;;3.4;3.1;;;;;;;16.08;72.5293;939.62;;;;
2021/06/16 01:28:30;;;;;;;4.9;3.5;;;;;;;16.07;72.73535;939.5864;;;;
2021/06/16 01:30:55;;;;;;;7.8;3.3;;;;;;;16.06;72.88477;939.5864;;;;
2021/06/16 01:33:22;;;;;;;3.9;3.3;;;;;;;16.03;72.82031;939.5764;;;;
2021/06/16 01:35:47;;;;;;;4.9;3.3;;;;;;;16.06;72.72266;939.5905;;;;
2021/06/16 01:38:14;;;;;;;4.4;3.1;;;;;;;16.05;72.74414;939.5906;;;;
2021/06/16 01:40:39;;;;;;;4.9;3.6;;;;;;;16.03;72.83398;939.5883;;;;
2021/06/16 01:43:06;;;;;;;5;2.9;;;;;;;16.02;72.88867;939.5804;;;;
2021/06/16 01:45:31;;;;;;;3.9;3.3;;;;;;;15.91;73.07813;939.6189;;;;
2021/06/16 01:47:57;;;;;;;7.2;3.1;;;;;;;15.8;73.52246;939.6453;;;;
2021/06/16 01:51:09;;;;;;;7.5;3.6;;;;;;;15.8;73.4668;939.6347;;;;
2021/06/16 01:53:34;;;;;;;5.6;3.6;;;;;;;15.9;73.25195;939.5754;;;;
2021/06/16 01:56:00;;;;;;;7;3.7;;;;;;;15.98;73.00977;939.6303;;;;
2021/06/16 01:58:50;;;;;;;8.5;3.9;;;;;;;15.94;73.07129;939.6227;;;;
2021/06/16 02:01:20;;;;;;;5.2;3.3;;;;;;;15.95;73.09766;939.551;;;;
2021/06/16 02:03:45;;;;;;;9.1;4.1;;;;;;;16.06;73.3584;939.5575;;;;
2021/06/16 02:06:10;;;;;;;10;4.4;;;;;;;16.13;73.10449;939.5745;;;;
2021/06/16 02:08:39;;;;;;;11.3;4.2;;;;;;;16.19;72.92871;939.5787;;;;
2021/06/16 02:11:04;;;;;;;7.6;3.8;;;;;;;16.23;72.6123;939.4356;;;;
2021/06/16 02:13:31;;;;;;;6.4;3.4;;;;;;;16.16;72.21875;939.5179;;;;
2021/06/16 02:15:58;;;;;;;7;3.3;;;;;;;16.13;72.29492;939.4749;;;;
2021/06/16 02:18:23;;;;;;;7.1;3.4;;;;;;;16.04;72.54492;939.4429;;;;
2021/06/16 02:20:52;;;;;;;7.6;3.1;;;;;;;16;72.68945;939.4238;;;;
2021/06/16 02:23:17;;;;;;;4.1;3;;;;;;;15.83;73.44824;939.4011;;;;
2021/06/16 02:25:48;;;;;;;13.2;4.1;;;;;;;15.72;73.96094;939.3745;;;;
2021/06/16 02:28:33;;;;;;;4.3;3.2;;;;;;;15.77;73.6123;939.423;;;;
2021/06/16 02:31:04;;;;;;;3.7;3;;;;;;;15.71;73.79688;939.3922;;;;
2021/06/16 02:33:32;;;;;;;5.5;3.3;;;;;;;15.59;74.31836;939.4403;;;;
2021/06/16 02:36:00;;;;;;;5.4;3.7;;;;;;;15.65;74.06445;939.4072;;;;
2021/06/16 02:38:25;;;;;;;3.9;3.2;;;;;;;15.57;74.33789;939.4241;;;;
2021/06/16 02:40:50;;;;;;;4.8;3.2;;;;;;;15.6;75.11816;939.3976;;;;
2021/06/16 02:45:40;;;;;;;4.8;3.3;;;;;;;15.48;74.90137;939.3903;;;;
2021/06/16 02:48:08;;;;;;;4.2;3.2;;;;;;;15.46;75.15234;939.4185;;;;
2021/06/16 02:50:38;;;;;;;5.1;2.9;;;;;;;15.49;74.99707;939.4295;;;;
2021/06/16 02:53:04;;;;;;;4.7;3.2;;;;;;;15.48;75.44434;939.4648;;;;
2021/06/16 02:55:29;;;;;;;6.3;3.2;;;;;;;15.59;74.91895;939.4677;;;;
2021/06/16 02:57:54;;;;;;;5.3;3.4;;;;;;;15.53;74.66699;939.4333;;;;
2021/06/16 03:00:20;;;;;;;5.7;3.6;;;;;;;15.6;74.18262;939.4531;;;;
2021/06/16 03:02:45;;;;;;;5;3;;;;;;;15.64;74.14355;939.4072;;;;
2021/06/16 03:05:13;;;;;;;5.2;3;;;;;;;15.68;74.08105;939.4342;;;;
2021/06/16 03:07:39;;;;;;;5.3;3.7;;;;;;;15.58;74.47852;939.4393;;;;
2021/06/16 03:10:04;;;;;;;7.2;3.1;;;;;;;15.43;75.22754;939.4661;;;;
2021/06/16 03:12:32;;;;;;;5.1;3.3;;;;;;;15.48;75.27148;939.3814;;;;
2021/06/16 03:14:58;;;;;;;6.4;3.8;;;;;;;15.43;75.39063;939.3635;;;;
2021/06/16 03:17:23;;;;;;;7.1;3.3;;;;;;;15.34;75.66309;939.3621;;;;
2021/06/16 03:19:51;;;;;;;4.1;3.2;;;;;;;15.38;75.69141;939.3627;;;;
2021/06/16 03:22:16;;;;;;;4.2;3.2;;;;;;;15.42;75.60645;939.2942;;;;
2021/06/16 03:24:44;;;;;;;6.2;3.4;;;;;;;15.44;75.44824;939.3593;;;;
2021/06/16 03:27:09;;;;;;;4;3.1;;;;;;;15.5;75.13574;939.4037;;;;
2021/06/16 03:29:39;;;;;;;4.8;3.5;;;;;;;15.65;74.88477;939.4056;;;;
2021/06/16 03:32:04;;;;;;;6;3.5;;;;;;;15.69;74.44043;939.4166;;;;
2021/06/16 03:34:29;;;;;;;4.7;3.6;;;;;;;15.69;74.39453;939.3675;;;;
2021/06/16 03:36:55;;;;;;;5.3;3.2;;;;;;;15.69;74.46387;939.3652;;;;
2021/06/16 03:39:29;;;;;;;6.3;3.6;;;;;;;15.56;75.06445;939.4114;;;;
2021/06/16 03:41:54;;;;;;;5.7;3.4;;;;;;;15.41;75.63867;939.4323;;;;
2021/06/16 03:44:19;;;;;;;11.7;4.2;;;;;;;15.55;75.30566;939.4836;;;;
2021/06/16 03:46:44;;;;;;;6.3;3.7;;;;;;;15.59;74.93066;939.4275;;;;
2021/06/16 03:49:12;;;;;;;5.8;4;;;;;;;15.5;75.4707;939.407;;;;
2021/06/16 03:51:37;;;;;;;4.5;3.2;;;;;;;15.49;75.44629;939.44;;;;
2021/06/16 03:54:11;;;;;;;8.4;3.6;;;;;;;15.46;75.27832;939.4202;;;;
2021/06/16 03:56:29;;;;;;;5.5;3.3;;;;;;;15.36;75.97852;939.3748;;;;
2021/06/16 03:58:57;;;;;;;6.1;3.3;;;;;;;15.56;75.3418;939.4058;;;;
2021/06/16 04:02:30;;;;;;;4;3.3;;;;;;;15.58;75.0459;939.4216;;;;
2021/06/16 04:04:55;;;;;;;4;3.4;;;;;;;15.52;75.31348;939.4397;;;;
2021/06/16 04:07:20;;;;;;;7.2;3.6;;;;;;;15.42;75.82617;939.4755;;;;
2021/06/16 04:09:45;;;;;;;7;3.5;;;;;;;15.52;75.75098;939.4366;;;;
2021/06/16 04:12:11;;;;;;;4.7;3.5;;;;;;;15.58;75.5293;939.4545;;;;
2021/06/16 04:14:40;;;;;;;6.1;3.3;;;;;;;15.73;74.92188;939.4346;;;;
2021/06/16 04:17:08;;;;;;;4.5;3.3;;;;;;;15.83;74.83301;939.3666;;;;
2021/06/16 04:19:38;;;;;;;6;3.2;;;;;;;15.74;75.01465;939.4097;;;;
2021/06/16 04:22:03;;;;;;;5.2;3.7;;;;;;;15.89;74.75195;939.3195;;;;
2021/06/16 04:24:30;;;;;;;5.2;3.4;;;;;;;15.91;74.32715;939.378;;;;
2021/06/16 04:26:55;;;;;;;7.5;3.5;;;;;;;15.87;74.36719;939.3276;;;;
2021/06/16 04:29:20;;;;;;;8.8;3.6;;;;;;;15.7;75.21582;939.3427;;;;
2021/06/16 04:31:47;;;;;;;6.3;3.9;;;;;;;15.46;76.12109;939.3416;;;;
2021/06/16 04:34:22;;;;;;;4.6;3.8;;;;;;;15.42;76.75;939.3739;;;;
2021/06/16 04:36:49;;;;;;;5;3.4;;;;;;;15.66;76.12109;939.2972;;;;
2021/06/16 04:39:15;;;;;;;9.4;3.7;;;;;;;15.8;75.13086;939.2581;;;;
2021/06/16 04:41:42;;;;;;;8.4;3.4;;;;;;;15.98;74.79199;939.2319;;;;
2021/06/16 04:44:07;;;;;;;7.7;4.5;;;;;;;15.92;74.68848;939.3144;;;;
2021/06/16 04:46:36;;;;;;;10.4;4.4;;;;;;;16.16;74;939.2456;;;;
2021/06/16 04:49:01;;;;;;;7;4.1;;;;;;;16.22;73.4541;939.2715;;;;
2021/06/16 04:51:31;;;;;;;6.4;3.5;;;;;;;16.39;73.16016;939.3237;;;;
2021/06/16 04:54:01;;;;;;;5.6;3.5;;;;;;;16.42;73.29199;939.302;;;;
2021/06/16 04:56:26;;;;;;;5.2;3.5;;;;;;;16.53;72.89355;939.3209;;;;
2021/06/16 04:58:53;;;;;;;11;5.5;;;;;;;16.54;72.9541;939.3055;;;;
2021/06/16 05:01:18;;;;;;;11;5.3;;;;;;;16.76;72.82617;939.2728;;;;
2021/06/16 05:03:45;;;;;;;9.1;4.6;;;;;;;17.25;72.81641;939.2461;;;;
2021/06/16 05:06:10;;;;;;;5.2;3.4;;;;;;;17.36;69.54004;939.226;;;;
2021/06/16 05:08:37;;;;;;;6.4;3.2;;;;;;;17.86;67.9248;939.1715;;;;
2021/06/16 05:11:02;;;;;;;5.4;3.3;;;;;;;18.4;66.53125;939.1873;;;;
2021/06/16 05:13:29;;;;;;;11.8;3.8;;;;;;;18.71;65.16992;939.1489;;;;
2021/06/16 05:16:02;;;;;;;3.6;2.7;;;;;;;18.95;63.83398;939.1369;;;;
2021/06/16 05:18:27;;;;;;;5.1;2.9;;;;;;;19.34;62.86426;939.0547;;;;
2021/06/16 05:20:55;;;;;;;3.4;2.6;;;;;;;19.33;62.03516;939.0839;;;;
2021/06/16 05:23:20;;;;;;;6.4;2.9;;;;;;;18.87;63.80859;939.1057;;;;
2021/06/16 05:25:47;;;;;;;6.1;3.3;;;;;;;18.75;64.31445;939.1071;;;;
2021/06/16 05:28:11;;;;;;;7.9;3.1;;;;;;;18.76;64.41016;939.1423;;;;
2021/06/16 05:30:37;;;;;;;4.8;3;;;;;;;18.71;65.14648;939.1111;;;;
2021/06/16 05:33:02;;;;;;;6.4;2.9;;;;;;;19.21;65.97656;939.1066;;;;
2021/06/16 05:35:28;;;;;;;8.3;3.4;;;;;;;19.41;62.93164;939.133;;;;
2021/06/16 05:37:53;;;;;;;4;3.1;;;;;;;19.39;63.53613;939.135;;;;
2021/06/16 05:40:22;;;;;;;5;3.1;;;;;;;19.5;63.24805;939.1359;;;;
2021/06/16 05:42:47;;;;;;;6.9;3;;;;;;;19.81;62.32422;939.0427;;;;
2021/06/16 05:45:17;;;;;;;4.8;3.2;;;;;;;20.3;60.53613;939.0673;;;;
2021/06/16 05:47:42;;;;;;;6.7;3.2;;;;;;;20.77;59.88867;939.0494;;;;
2021/06/16 05:50:10;;;;;;;11.6;3.4;;;;;;;21.26;58.22266;939.0215;;;;
2021/06/16 05:52:35;;;;;;;5.5;2.8;;;;;;;21.61;56.7002;939.0514;;;;
2021/06/16 05:55:02;;;;;;;6.8;3.2;;;;;;;21.69;56.26465;939.0006;;;;
2021/06/16 05:57:27;;;;;;;5.1;3;;;;;;;22.01;54.92285;939.0358;;;;
2021/06/16 05:59:54;;;;;;;6.7;3.1;;;;;;;21.9;55.12012;939.0289;;;;
2021/06/16 06:02:19;;;;;;;6.2;3.4;;;;;;;22.66;53.72363;939.0641;;;;
2021/06/16 06:04:47;;;;;;;4.6;2.9;;;;;;;23.22;51.40527;939.0296;;;;
2021/06/16 06:07:12;;;;;;;6;3.1;;;;;;;23.46;50.29297;939.0005;;;;
2021/06/16 06:09:40;;;;;;;6;3;;;;;;;24.11;49.42383;938.907;;;;
2021/06/16 06:12:05;;;;;;;6.5;2.8;;;;;;;25.11;47.16211;938.8287;;;;
2021/06/16 06:14:35;;;;;;;4.8;2.8;;;;;;;26.23;44.54688;938.8184;;;;
2021/06/16 06:17:11;;;;;;;4.1;2.6;;;;;;;26.7;44.60645;938.8278;;;;
2021/06/16 06:19:41;;;;;;;6.3;2.9;;;;;;;27.73;41.61035;938.7933;;;;
2021/06/16 06:22:06;;;;;;;3.7;2.6;;;;;;;27.75;38.95215;938.7977;;;;
2021/06/16 06:24:32;;;;;;;4.4;2.6;;;;;;;28.06;40.25;938.7966;;;;
2021/06/16 06:26:57;;;;;;;5.9;2.7;;;;;;;28.97;37.26074;938.7255;;;;
2021/06/16 06:29:26;;;;;;;4.2;2.3;;;;;;;28.6;37.39551;938.7092;;;;
2021/06/16 06:31:55;;;;;;;2.6;2.4;;;;;;;28.6;37.25293;938.6669;;;;
2021/06/16 06:34:20;;;;;;;3.6;2.3;;;;;;;27.05;39.04492;938.6478;;;;
2021/06/16 06:36:50;;;;;;;3.5;2.5;;;;;;;26.13;40.43262;938.6666;;;;
2021/06/16 06:39:15;;;;;;;2.5;2.1;;;;;;;26.49;43.85059;938.6859;;;;
2021/06/16 06:41:44;;;;;;;2.7;2.3;;;;;;;27.91;39.85645;938.6129;;;;
2021/06/16 06:44:08;;;;;;;4.2;2.8;;;;;;;28.56;37.53516;938.6348;;;;
2021/06/16 06:46:34;;;;;;;3.5;2.7;;;;;;;29.42;35.92676;938.6063;;;;
2021/06/16 06:48:59;;;;;;;2.8;2.4;;;;;;;29.94;37.06641;938.5386;;;;
2021/06/16 06:51:25;;;;;;;3.5;2.4;;;;;;;30.96;33.8252;938.631;;;;
2021/06/16 06:53:51;;;;;;;5.1;3;;;;;;;30.05;34.61719;938.5117;;;;
2021/06/16 06:56:16;;;;;;;5.6;2.5;;;;;;;29.71;34.03027;938.521;;;;
2021/06/16 06:58:42;;;;;;;4.8;2.5;;;;;;;28.91;35.85059;938.4338;;;;
2021/06/16 07:01:09;;;;;;;5.4;2.5;;;;;;;29.27;34.74805;938.381;;;;
2021/06/16 07:03:34;;;;;;;3.2;2.6;;;;;;;28.95;35.72266;938.3496;;;;
2021/06/16 07:06:00;;;;;;;4.4;2.6;;;;;;;30.11;35.79199;938.3599;;;;
2021/06/16 07:08:25;;;;;;;5.1;2.5;;;;;;;30.21;33.2334;938.2999;;;;
2021/06/16 07:10:53;;;;;;;3.5;2.7;;;;;;;30.34;33.56445;938.2856;;;;
2021/06/16 07:13:18;;;;;;;4.1;2.3;;;;;;;29.4;33.69727;938.242;;;;
2021/06/16 07:15:50;;;;;;;3.8;2.6;;;;;;;29.15;34.41699;938.2625;;;;
2021/06/16 07:18:15;;;;;;;4.2;2.6;;;;;;;30.44;33.82324;938.1223;;;;
2021/06/16 07:20:40;;;;;;;3.6;2.3;;;;;;;29.91;33.54395;938.1825;;;;
2021/06/16 07:23:08;;;;;;;4.2;2.6;;;;;;;27.72;38.04688;938.1821;;;;
2021/06/16 07:25:33;;;;;;;3.7;2.5;;;;;;;30.02;35.36621;938.1222;;;;
2021/06/16 07:28:01;;;;;;;3.5;2.6;;;;;;;30.98;31.8418;938.1328;;;;
2021/06/16 07:30:26;;;;;;;5.1;2.5;;;;;;;31.27;32.97559;938.1247;;;;
2021/06/16 07:32:56;;;;;;;6.5;3.2;;;;;;;32.64;30.19434;938.041;;;;
2021/06/16 07:35:21;;;;;;;4.9;2.6;;;;;;;33.4;30.89453;938.0159;;;;
2021/06/16 07:37:51;;;;;;;4.3;2.2;;;;;;;32.59;27.47949;938.0369;;;;
2021/06/16 07:40:20;;;;;;;4.8;2.2;;;;;;;32.35;29.25195;937.9791;;;;
2021/06/16 07:42:45;;;;;;;3.6;2.2;;;;;;;30.67;31.96289;938.0154;;;;
2021/06/16 07:45:10;;;;;;;2.6;2.4;;;;;;;30.87;31.45215;937.962;;;;
2021/06/16 07:47:40;;;;;;;2.7;2.5;;;;;;;30.72;32.21875;937.9655;;;;
2021/06/16 07:50:05;;;;;;;4.2;2.9;;;;;;;30.98;32.57129;937.9321;;;;
2021/06/16 07:52:30;;;;;;;2.6;2.4;;;;;;;31.01;32.74121;937.9332;;;;
2021/06/16 07:55:05;;;;;;;3.9;2.3;;;;;;;31.86;31.60449;937.9369;;;;
2021/06/16 07:57:30;;;;;;;2.6;2.2;;;;;;;30.63;31.125;937.8459;;;;
2021/06/16 07:59:55;;;;;;;3.5;2.2;;;;;;;31.57;30.60254;937.8342;;;;
2021/06/16 08:02:21;;;;;;;2.6;2.3;;;;;;;32.81;28.46484;937.8217;;;;
2021/06/16 08:04:50;;;;;;;4.1;2.1;;;;;;;33.6;29.39258;937.782;;;;
2021/06/16 08:07:15;;;;;;;2.7;2.3;;;;;;;34.68;27.08789;937.8072;;;;
2021/06/16 08:09:42;;;;;;;2.4;2.2;;;;;;;35.84;25.95996;937.7988;;;;
2021/06/16 08:12:08;;;;;;;4.7;2.1;;;;;;;35.22;25.79102;937.8253;;;;
2021/06/16 08:14:36;;;;;;;5.2;2.1;;;;;;;35.95;24.01953;937.8019;;;;
2021/06/16 08:17:03;;;;;;;4.3;2.2;;;;;;;35.98;24.17871;937.7353;;;;
2021/06/16 08:19:33;;;;;;;4.6;2.1;;;;;;;36.48;26.16504;937.7498;;;;
2021/06/16 08:21:58;;;;;;;4.9;2.2;;;;;;;36.4;23.92188;937.7753;;;;
2021/06/16 08:24:23;;;;;;;3.7;1.9;;;;;;;34.74;26.45215;937.7767;;;;
2021/06/16 08:26:51;;;;;;;4.6;2;;;;;;;34.8;25.82813;937.7729;;;;
2021/06/16 08:29:16;;;;;;;3.1;2;;;;;;;35.44;25.51465;937.7512;;;;
2021/06/16 08:31:43;;;;;;;3.4;2.4;;;;;;;36.26;24.91895;937.6561;;;;
2021/06/16 08:34:08;;;;;;;2.3;2;;;;;;;36.76;24.01367;937.6453;;;;
2021/06/16 08:36:38;;;;;;;5.6;2.7;;;;;;;36.45;26.61133;937.6575;;;;
2021/06/16 08:39:08;;;;;;;3.1;2.3;;;;;;;35.86;27.18164;937.6328;;;;
2021/06/16 08:41:33;;;;;;;3.1;2.2;;;;;;;37.16;25.25879;937.6222;;;;
2021/06/16 08:44:00;;;;;;;4.6;2.5;;;;;;;37.2;26.21875;937.6094;;;;
2021/06/16 08:46:29;;;;;;;2.5;2.2;;;;;;;37.05;25.99219;937.5865;;;;
2021/06/16 08:48:54;;;;;;;4.2;2.4;;;;;;;35.74;25.65137;937.646;;;;
2021/06/16 08:51:22;;;;;;;7.7;2.8;;;;;;;35.21;29.65332;937.6965;;;;
2021/06/16 08:53:48;;;;;;;4.2;2;;;;;;;34.3;28.54688;937.6553;;;;
2021/06/16 08:56:13;;;;;;;2.2;2;;;;;;;34.2;29.57617;937.603;;;;
2021/06/16 08:58:39;;;;;;;2.3;2.1;;;;;;;35.43;27.55469;937.6696;;;;
2021/06/16 09:01:05;;;;;;;2.7;2.1;;;;;;;35.11;28.83887;937.6393;;;;
2021/06/16 09:03:30;;;;;;;4.3;2.3;;;;;;;34.25;28.0498;937.6038;;;;
2021/06/16 09:05:57;;;;;;;3.1;2;;;;;;;34.22;30.55273;937.582;;;;
2021/06/16 09:08:23;;;;;;;2.6;2.1;;;;;;;34.76;29.52832;937.5652;;;;
2021/06/16 09:10:51;;;;;;;2.9;1.9;;;;;;;34.61;29.16797;937.5472;;;;
2021/06/16 09:13:16;;;;;;;2.5;2.1;;;;;;;34.74;29.85254;937.5753;;;;
2021/06/16 09:15:49;;;;;;;2;1.9;;;;;;;32.84;29.74023;937.4483;;;;
2021/06/16 09:18:16;;;;;;;2.8;2.2;;;;;;;32.9;32.44531;937.5154;;;;
2021/06/16 09:20:42;;;;;;;3.2;2;;;;;;;32.91;32.2666;937.486;;;;
2021/06/16 09:23:06;;;;;;;6.2;2;;;;;;;33.4;31.31543;937.4565;;;;
2021/06/16 09:25:34;;;;;;;3.2;2.2;;;;;;;33.64;32.64258;937.4861;;;;
2021/06/16 09:28:00;;;;;;;2.9;2.2;;;;;;;32.78;32.82031;937.508;;;;
2021/06/16 09:33:21;;;;;;;3.1;2.1;;;;;;;32.85;32.96973;937.4634;;;;
2021/06/16 09:35:48;;;;;;;2.3;2.1;;;;;;;33.46;31.63184;937.4469;;;;
2021/06/16 09:38:12;;;;;;;4.7;2.4;;;;;;;33.54;31.8418;937.4827;;;;
2021/06/16 09:40:40;;;;;;;3.2;2.4;;;;;;;33.54;31.5293;937.4255;;;;
2021/06/16 09:43:05;;;;;;;4.2;2;;;;;;;33.86;29.38574;937.4832;;;;
2021/06/16 09:45:32;;;;;;;4.5;2.3;;;;;;;33.98;29.77832;937.4773;;;;
2021/06/16 09:47:57;;;;;;;6.1;1.9;;;;;;;33.42;30.70313;937.4317;;;;
2021/06/16 09:50:22;;;;;;;5.8;2.1;;;;;;;32.72;31.50879;937.4725;;;;
2021/06/16 09:52:50;;;;;;;2.5;2;;;;;;;33.04;31.60254;937.4719;;;;
2021/06/16 09:55:16;;;;;;;2.8;1.8;;;;;;;33.03;31.12109;937.4416;;;;
2021/06/16 09:57:43;;;;;;;3.2;2;;;;;;;33.1;31.89551;937.3488;;;;
2021/06/16 10:00:10;;;;;;;3.8;2;;;;;;;32.49;32.5127;937.3533;;;;
2021/06/16 10:02:40;;;;;;;2.4;2.1;;;;;;;32.03;35.06836;937.3894;;;;
2021/06/16 10:05:04;;;;;;;3.8;2.3;;;;;;;30.98;36.0752;937.377;;;;
2021/06/16 10:07:28;;;;;;;4;2.3;;;;;;;30.87;36.05469;937.3856;;;;
2021/06/16 10:09:54;;;;;;;3.7;2;;;;;;;31.21;34.40723;937.3762;;;;
2021/06/16 10:12:20;;;;;;;2.6;2.1;;;;;;;31.01;35.47949;937.3136;;;;
2021/06/16 10:14:48;;;;;;;3.8;2.4;;;;;;;30.67;36.86328;937.3139;;;;
2021/06/16 10:17:15;;;;;;;5.4;2.3;;;;;;;30.88;35.87695;937.3008;;;;
2021/06/16 10:19:38;;;;;;;3.4;2.3;;;;;;;30.84;38.19141;937.3007;;;;
2021/06/16 10:22:04;;;;;;;2.8;1.9;;;;;;;30.43;37.7998;937.2327;;;;
2021/06/16 10:24:29;;;;;;;4;2.4;;;;;;;30.64;36.68164;937.2137;;;;
2021/06/16 10:26:56;;;;;;;3.4;2.2;;;;;;;30.63;34.93652;937.183;;;;
2021/06/16 10:29:22;;;;;;;3.2;1.9;;;;;;;30.68;35.51367;937.1323;;;;
2021/06/16 10:31:47;;;;;;;2.8;2.3;;;;;;;30.77;34.94727;937.1281;;;;
2021/06/16 10:34:12;;;;;;;3.3;2.1;;;;;;;31.01;35.07324;937.08;;;;
2021/06/16 10:36:39;;;;;;;4.6;2.3;;;;;;;30.38;36.67188;937.0588;;;;
2021/06/16 10:39:03;;;;;;;3.9;2.2;;;;;;;30.7;36.56738;937.0411;;;;
2021/06/16 10:41:30;;;;;;;2.5;2.1;;;;;;;31.04;36.95313;936.9844;;;;
2021/06/16 10:43:55;;;;;;;4.9;2.3;;;;;;;30.73;36.84473;937.0011;;;;
2021/06/16 10:46:22;;;;;;;4.4;2.1;;;;;;;29.59;37.33496;936.9436;;;;
2021/06/16 10:48:49;;;;;;;3.2;2.1;;;;;;;29.51;37.66309;936.9588;;;;
2021/06/16 10:51:12;;;;;;;6.6;2;;;;;;;29.33;38.75586;936.9709;;;;
2021/06/16 10:53:38;;;;;;;3.6;1.9;;;;;;;29.43;37.20313;936.9649;;;;
2021/06/16 10:56:03;;;;;;;3.3;2.3;;;;;;;29.18;38.93359;936.9576;;;;
2021/06/16 10:58:28;;;;;;;4;2.1;;;;;;;29.28;38.65625;936.9658;;;;
2021/06/16 11:00:55;;;;;;;4.1;2.2;;;;;;;29.4;38.42773;936.9476;;;;
2021/06/16 11:03:21;;;;;;;3.9;2.2;;;;;;;29.99;35.94922;936.9403;;;;
2021/06/16 11:05:49;;;;;;;3.7;2.1;;;;;;;29.97;36.75781;936.9375;;;;
2021/06/16 11:08:18;;;;;;;2.2;1.9;;;;;;;30.4;36.16016;936.9058;;;;
2021/06/16 11:10:40;;;;;;;5.3;2.5;;;;;;;30.31;37.88379;936.8954;;;;
2021/06/16 11:13:09;;;;;;;2.7;2.1;;;;;;;29.94;39.02246;936.885;;;;
2021/06/16 11:15:42;;;;;;;7;2.6;;;;;;;30.07;37.66113;936.8312;;;;
2021/06/16 11:20:41;;;;;;;5.5;2.1;;;;;;;30.04;37.15723;936.7864;;;;
2021/06/16 11:23:08;;;;;;;5.3;2.2;;;;;;;30.28;36.17383;936.7872;;;;
2021/06/16 11:25:35;;;;;;;5;2.7;;;;;;;30.15;36.83203;936.7704;;;;
2021/06/16 11:28:06;;;;;;;3.2;2.3;;;;;;;29.7;38.35742;936.7315;;;;
2021/06/16 11:30:34;;;;;;;3.2;2.2;;;;;;;29.7;38.06055;936.7147;;;;
2021/06/16 11:33:04;;;;;;;3.4;2.3;;;;;;;30.01;37.0127;936.7228;;;;
2021/06/16 11:35:35;;;;;;;3.9;2.2;;;;;;;30.13;35.69727;936.7422;;;;
2021/06/16 11:38:04;;;;;;;3.8;2.1;;;;;;;29.85;36.53418;936.6728;;;;
2021/06/16 11:40:28;;;;;;;2.4;2.1;;;;;;;30.04;36.94336;936.6644;;;;
2021/06/16 11:42:54;;;;;;;4.3;2.3;;;;;;;30.01;37.7041;936.6187;;;;
2021/06/16 11:45:19;;;;;;;4;2.1;;;;;;;30.3;37.9668;936.6513;;;;
2021/06/16 11:47:45;;;;;;;3.2;2.5;;;;;;;29.96;38.01074;936.6454;;;;
2021/06/16 11:50:10;;;;;;;3.4;2.4;;;;;;;30.32;36.57227;936.5576;;;;
2021/06/16 11:52:40;;;;;;;3.1;2.1;;;;;;;30.28;35.80469;936.5792;;;;
2021/06/16 11:55:05;;;;;;;3.3;2.1;;;;;;;30.26;36.85352;936.5792;;;;
2021/06/16 11:57:31;;;;;;;2.3;2.1;;;;;;;30.45;36.83398;936.5419;;;;
2021/06/16 11:59:55;;;;;;;4.4;2.8;;;;;;;30.3;37;936.4972;;;;
2021/06/16 12:02:23;;;;;;;4.4;2.1;;;;;;;30.39;38.08301;936.4578;;;;
2021/06/16 12:04:49;;;;;;;3.8;2.1;;;;;;;30.4;36.88867;936.4653;;;;
2021/06/16 12:07:17;;;;;;;5.3;2.5;;;;;;;30.48;37.68359;936.4133;;;;
2021/06/16 12:09:42;;;;;;;2.7;2.4;;;;;;;30.13;37.39258;936.4034;;;;
2021/06/16 12:12:07;;;;;;;4;2.4;;;;;;;29.98;37.04492;936.4325;;;;
2021/06/16 12:15:15;;;;;;;4;2.3;;;;;;;30.13;36.42578;936.4594;;;;
2021/06/16 12:17:40;;;;;;;3.2;2.4;;;;;;;30.39;36.26758;936.3904;;;;
2021/06/16 12:20:06;;;;;;;4.2;2.2;;;;;;;30.59;37.03613;936.3783;;;;
2021/06/16 12:22:31;;;;;;;2.8;2.5;;;;;;;30.43;37.38086;936.3639;;;;
2021/06/16 12:25:01;;;;;;;3.4;2.2;;;;;;;30.43;37.18945;936.3683;;;;
2021/06/16 12:30:26;;;;;;;4.1;2.3;;;;;;;29.92;37.32715;936.3244;;;;
2021/06/16 12:32:51;;;;;;;4.1;2.4;;;;;;;30.13;37.5957;936.2902;;;;
2021/06/16 12:35:26;;;;;;;2.6;2.3;;;;;;;30.04;37.11035;936.3047;;;;
2021/06/16 12:37:47;;;;;;;3.4;2.3;;;;;;;30.04;37.94531;936.282;;;;
2021/06/16 12:40:12;;;;;;;2.9;2.2;;;;;;;30.08;37.47168;936.2717;;;;
2021/06/16 12:42:40;;;;;;;2.8;2.1;;;;;;;29.88;37.04883;936.2288;;;;
2021/06/16 12:45:11;;;;;;;5.1;2.3;;;;;;;29.95;38.27148;936.2567;;;;
2021/06/16 12:47:38;;;;;;;4;2.2;;;;;;;29.68;38.92871;936.157;;;;
2021/06/16 12:50:03;;;;;;;4;2.3;;;;;;;29.81;37.01953;936.1647;;;;
2021/06/16 12:52:30;;;;;;;2.4;2.2;;;;;;;30.11;36.03027;936.1053;;;;
2021/06/16 12:54:56;;;;;;;2.4;2;;;;;;;30.02;37.65723;936.0913;;;;
2021/06/16 12:57:22;;;;;;;4.1;2.2;;;;;;;30.19;36.51367;936.048;;;;
2021/06/16 12:59:47;;;;;;;3.3;2.4;;;;;;;30.06;35.8584;936.0737;;;;
2021/06/16 13:02:12;;;;;;;4.2;2.3;;;;;;;29.96;36.99609;936.0694;;;;
2021/06/16 13:04:37;;;;;;;5.7;2.4;;;;;;;30.04;38.38672;936.0071;;;;
2021/06/16 13:07:02;;;;;;;4.6;2.5;;;;;;;29.76;37.87402;935.9852;;;;
2021/06/16 13:09:27;;;;;;;6.4;2.5;;;;;;;29.67;37.18652;935.9266;;;;
2021/06/16 13:11:56;;;;;;;2.4;2;;;;;;;29.71;36.6416;935.9175;;;;
2021/06/16 13:14:25;;;;;;;3.7;2.3;;;;;;;29.64;38.28125;935.8967;;;;
2021/06/16 13:16:53;;;;;;;4.2;2.4;;;;;;;29.64;35.9209;935.8898;;;;
2021/06/16 13:19:21;;;;;;;3.8;2.2;;;;;;;29.91;37.19531;935.907;;;;
2021/06/16 13:21:46;;;;;;;3.8;2;;;;;;;30.07;36.44434;935.7964;;;;
2021/06/16 13:24:11;;;;;;;4.3;2.4;;;;;;;30.06;35.53613;935.853;;;;
2021/06/16 13:26:36;;;;;;;5;2.1;;;;;;;29.78;36.87402;935.8853;;;;
2021/06/16 13:29:13;;;;;;;4.7;2.4;;;;;;;29.98;36.52051;935.8666;;;;
2021/06/16 13:31:39;;;;;;;2.6;2.3;;;;;;;30.32;34.31543;935.851;;;;
2021/06/16 13:34:04;;;;;;;2.5;1.8;;;;;;;30.43;35.67285;935.8232;;;;
2021/06/16 13:36:30;;;;;;;2.7;2.4;;;;;;;30.48;35.89258;935.7939;;;;
2021/06/16 13:38:56;;;;;;;3.1;2.2;;;;;;;30.51;35.39258;935.7177;;;;
2021/06/16 13:41:22;;;;;;;4.6;2.4;;;;;;;30.32;35.84375;935.7888;;;;
2021/06/16 13:43:47;;;;;;;3.6;2.2;;;;;;;30;36.65332;935.7659;;;;
2021/06/16 13:46:12;;;;;;;2.4;2;;;;;;;29.93;36.9707;935.7772;;;;
2021/06/16 13:48:37;;;;;;;2.6;2.3;;;;;;;29.75;36.91895;935.8178;;;;
2021/06/16 13:51:02;;;;;;;3.7;2.2;;;;;;;29.84;36.80762;935.736;;;;
2021/06/16 13:53:27;;;;;;;3.3;2.5;;;;;;;29.64;37.70898;935.7142;;;;
2021/06/16 13:55:54;;;;;;;9;2.6;;;;;;;29.73;39.30176;935.7059;;;;
2021/06/16 13:58:19;;;;;;;4.3;2.2;;;;;;;29.59;38.43164;935.7037;;;;
2021/06/16 14:00:45;;;;;;;4.7;2.3;;;;;;;29.32;39.79102;935.7175;;;;
2021/06/16 14:03:10;;;;;;;3.2;2.1;;;;;;;29.41;38.05859;935.6998;;;;
2021/06/16 14:05:37;;;;;;;3.7;2.3;;;;;;;29.28;36.98828;935.7389;;;;
2021/06/16 14:08:02;;;;;;;2.7;2;;;;;;;29.41;37.28418;935.7585;;;;
2021/06/16 14:10:29;;;;;;;3.9;2.1;;;;;;;29.46;37.81348;935.6959;;;;
2021/06/16 14:12:55;;;;;;;5.1;2.1;;;;;;;29.51;37.90137;935.7115;;;;
2021/06/16 14:15:29;;;;;;;4.1;2.1;;;;;;;29.46;36.56152;935.6772;;;;
2021/06/16 14:17:58;;;;;;;3.8;2.2;;;;;;;29.5;38.19824;935.7358;;;;
2021/06/16 14:20:23;;;;;;;3.3;2.5;;;;;;;29.33;37.91016;935.7241;;;;
2021/06/16 14:22:51;;;;;;;2.8;2.2;;;;;;;29.53;37.5332;935.7386;;;;
2021/06/16 14:25:23;;;;;;;6.8;2.3;;;;;;;29.7;38.85938;935.715;;;;
2021/06/16 14:27:47;;;;;;;7;2.4;;;;;;;29.54;36.97363;935.733;;;;
2021/06/16 14:30:15;;;;;;;3.2;2.1;;;;;;;29.33;37.82617;935.7319;;;;
2021/06/16 14:32:40;;;;;;;4.3;2.4;;;;;;;29.15;38.90625;935.7704;;;;
2021/06/16 14:35:09;;;;;;;5.4;2.5;;;;;;;29.32;36.20508;935.6837;;;;
2021/06/16 14:37:34;;;;;;;4;2.5;;;;;;;29.25;36.48438;935.7551;;;;